sensor_id;sensor_type;location;lat;lon;timestamp;pressure;altitude;pressure_sealevel;temperature;humidity
79198;BME280;68628;48.714;9.472;2023-06-14T00:00:07;97598.78;;;13.27;56.54
79198;BME280;68628;48.714;9.472;2023-06-14T00:02:40;97587.59;;;13.25;56.02
79198;BME280;68628;48.714;9.472;2023-06-14T00:05:07;97589.84;;;13.21;56.42
79198;BME280;68628;48.714;9.472;2023-06-14T00:07:39;97596.34;;;13.19;55.91
79198;BME280;68628;48.714;9.472;2023-06-14T00:10:12;97593.94;;;13.17;56.65
79198;BME280;68628;48.714;9.472;2023-06-14T00:12:38;97596.78;;;13.09;56.10
79198;BME280;68628;48.714;9.472;2023-06-14T00:15:07;97590.50;;;13.10;56.67
79198;BME280;68628;48.714;9.472;2023-06-14T00:17:36;97578.28;;;13.09;55.91
79198;BME280;68628;48.714;9.472;2023-06-14T00:20:04;97588.03;;;13.02;57.15
79198;BME280;68628;48.714;9.472;2023-06-14T00:22:33;97587.66;;;12.98;57.44
79198;BME280;68628;48.714;9.472;2023-06-14T00:24:59;97585.63;;;12.93;57.06
79198;BME280;68628;48.714;9.472;2023-06-14T00:27:25;97583.00;;;12.87;57.57
79198;BME280;68628;48.714;9.472;2023-06-14T00:29:51;97593.16;;;12.83;58.21
79198;BME280;68628;48.714;9.472;2023-06-14T00:32:18;97588.50;;;12.78;58.56
79198;BME280;68628;48.714;9.472;2023-06-14T00:34:44;97587.66;;;12.78;58.75
79198;BME280;68628;48.714;9.472;2023-06-14T00:37:10;97593.56;;;12.73;58.67
79198;BME280;68628;48.714;9.472;2023-06-14T00:39:38;97580.97;;;12.62;58.82
79198;BME280;68628;48.714;9.472;2023-06-14T00:42:04;97589.94;;;12.61;58.77
79198;BME280;68628;48.714;9.472;2023-06-14T00:44:30;97599.66;;;12.54;59.10
79198;BME280;68628;48.714;9.472;2023-06-14T00:46:56;97593.78;;;12.52;59.22
79198;BME280;68628;48.714;9.472;2023-06-14T00:49:21;97593.59;;;12.53;59.98
79198;BME280;68628;48.714;9.472;2023-06-14T00:51:47;97600.09;;;12.50;59.64
79198;BME280;68628;48.714;9.472;2023-06-14T00:54:13;97597.03;;;12.47;60.04
79198;BME280;68628;48.714;9.472;2023-06-14T00:56:43;97598.25;;;12.44;60.03
79198;BME280;68628;48.714;9.472;2023-06-14T00:59:09;97591.31;;;12.43;60.51
79198;BME280;68628;48.714;9.472;2023-06-14T01:01:36;97591.72;;;12.40;60.61
79198;BME280;68628;48.714;9.472;2023-06-14T01:04:04;97587.25;;;12.34;59.58
79198;BME280;68628;48.714;9.472;2023-06-14T01:06:46;97587.47;;;12.39;60.45
79198;BME280;68628;48.714;9.472;2023-06-14T01:09:52;97591.50;;;12.28;60.29
79198;BME280;68628;48.714;9.472;2023-06-14T01:12:52;97589.69;;;12.29;59.92
79198;BME280;68628;48.714;9.472;2023-06-14T01:15:21;97590.50;;;12.29;60.16
79198;BME280;68628;48.714;9.472;2023-06-14T01:17:51;97585.00;;;12.24;59.69
79198;BME280;68628;48.714;9.472;2023-06-14T01:20:21;97589.88;;;12.21;60.75
79198;BME280;68628;48.714;9.472;2023-06-14T01:22:52;97588.66;;;12.16;60.73
79198;BME280;68628;48.714;9.472;2023-06-14T01:25:22;97589.44;;;12.17;60.53
79198;BME280;68628;48.714;9.472;2023-06-14T01:27:51;97593.28;;;12.08;61.85
79198;BME280;68628;48.714;9.472;2023-06-14T01:30:22;97590.47;;;12.03;61.65
79198;BME280;68628;48.714;9.472;2023-06-14T01:32:52;97594.69;;;11.97;62.33
79198;BME280;68628;48.714;9.472;2023-06-14T01:35:20;97591.47;;;11.95;61.49
79198;BME280;68628;48.714;9.472;2023-06-14T01:37:48;97590.00;;;11.92;62.33
79198;BME280;68628;48.714;9.472;2023-06-14T01:40:18;97589.00;;;11.93;62.13
79198;BME280;68628;48.714;9.472;2023-06-14T01:42:50;97591.59;;;11.87;61.63
79198;BME280;68628;48.714;9.472;2023-06-14T01:45:18;97586.91;;;11.82;62.09
79198;BME280;68628;48.714;9.472;2023-06-14T01:47:45;97594.41;;;11.78;62.27
79198;BME280;68628;48.714;9.472;2023-06-14T01:50:12;97592.38;;;11.74;62.13
79198;BME280;68628;48.714;9.472;2023-06-14T01:52:38;97592.56;;;11.72;62.04
79198;BME280;68628;48.714;9.472;2023-06-14T01:55:05;97586.88;;;11.69;61.58
79198;BME280;68628;48.714;9.472;2023-06-14T01:57:31;97588.06;;;11.66;61.85
79198;BME280;68628;48.714;9.472;2023-06-14T01:59:57;97590.28;;;11.62;62.26
79198;BME280;68628;48.714;9.472;2023-06-14T02:02:22;97600.41;;;11.59;63.12
79198;BME280;68628;48.714;9.472;2023-06-14T02:04:48;97597.78;;;11.59;62.42
79198;BME280;68628;48.714;9.472;2023-06-14T02:07:14;97596.16;;;11.58;63.34
79198;BME280;68628;48.714;9.472;2023-06-14T02:09:41;97594.34;;;11.58;63.35
79198;BME280;68628;48.714;9.472;2023-06-14T02:12:07;97599.19;;;11.55;63.44
79198;BME280;68628;48.714;9.472;2023-06-14T02:14:33;97591.47;;;11.53;62.88
79198;BME280;68628;48.714;9.472;2023-06-14T02:16:59;97590.03;;;11.50;62.63
79198;BME280;68628;48.714;9.472;2023-06-14T02:19:26;97590.41;;;11.41;63.18
79198;BME280;68628;48.714;9.472;2023-06-14T02:21:52;97588.00;;;11.46;62.72
79198;BME280;68628;48.714;9.472;2023-06-14T02:24:18;97595.91;;;11.46;63.26
79198;BME280;68628;48.714;9.472;2023-06-14T02:26:44;97592.03;;;11.42;63.36
79198;BME280;68628;48.714;9.472;2023-06-14T02:29:09;97594.81;;;11.33;63.34
79198;BME280;68628;48.714;9.472;2023-06-14T02:31:37;97596.66;;;11.33;63.67
79198;BME280;68628;48.714;9.472;2023-06-14T02:34:04;97595.97;;;11.24;63.88
79198;BME280;68628;48.714;9.472;2023-06-14T02:36:29;97594.38;;;11.23;64.53
79198;BME280;68628;48.714;9.472;2023-06-14T02:38:56;97596.81;;;11.25;63.87
79198;BME280;68628;48.714;9.472;2023-06-14T02:41:25;97592.75;;;11.22;64.27
79198;BME280;68628;48.714;9.472;2023-06-14T02:43:51;97595.75;;;11.19;64.86
79198;BME280;68628;48.714;9.472;2023-06-14T02:46:18;97599.13;;;11.06;64.58
79198;BME280;68628;48.714;9.472;2023-06-14T02:48:43;97602.38;;;11.08;65.48
79198;BME280;68628;48.714;9.472;2023-06-14T02:51:09;97600.38;;;11.10;64.31
79198;BME280;68628;48.714;9.472;2023-06-14T02:53:35;97600.53;;;11.02;64.81
79198;BME280;68628;48.714;9.472;2023-06-14T02:56:02;97602.34;;;11.02;65.27
79198;BME280;68628;48.714;9.472;2023-06-14T02:58:29;97595.03;;;10.97;65.54
79198;BME280;68628;48.714;9.472;2023-06-14T03:00:55;97601.09;;;10.97;65.15
79198;BME280;68628;48.714;9.472;2023-06-14T03:03:21;97597.41;;;10.92;65.15
79198;BME280;68628;48.714;9.472;2023-06-14T03:05:50;97592.34;;;10.90;65.79
79198;BME280;68628;48.714;9.472;2023-06-14T03:08:20;97602.66;;;10.85;65.45
79198;BME280;68628;48.714;9.472;2023-06-14T03:10:47;97600.22;;;10.83;65.63
79198;BME280;68628;48.714;9.472;2023-06-14T03:13:14;97604.66;;;10.83;65.56
79198;BME280;68628;48.714;9.472;2023-06-14T03:15:42;97611.94;;;10.81;65.92
79198;BME280;68628;48.714;9.472;2023-06-14T03:18:08;97605.66;;;10.82;66.30
79198;BME280;68628;48.714;9.472;2023-06-14T03:20:35;97607.88;;;10.78;66.26
79198;BME280;68628;48.714;9.472;2023-06-14T03:23:02;97610.66;;;10.77;66.09
79198;BME280;68628;48.714;9.472;2023-06-14T03:25:31;97607.69;;;10.80;65.92
79198;BME280;68628;48.714;9.472;2023-06-14T03:27:58;97613.13;;;10.78;66.62
79198;BME280;68628;48.714;9.472;2023-06-14T03:30:24;97613.13;;;10.78;66.89
79198;BME280;68628;48.714;9.472;2023-06-14T03:32:50;97621.66;;;10.80;66.46
79198;BME280;68628;48.714;9.472;2023-06-14T03:35:21;97622.19;;;10.69;66.12
79198;BME280;68628;48.714;9.472;2023-06-14T03:37:47;97620.59;;;10.75;66.88
79198;BME280;68628;48.714;9.472;2023-06-14T03:40:17;97619.22;;;10.79;66.34
79198;BME280;68628;48.714;9.472;2023-06-14T03:42:43;97621.59;;;10.74;65.96
79198;BME280;68628;48.714;9.472;2023-06-14T03:45:09;97621.00;;;10.72;66.27
79198;BME280;68628;48.714;9.472;2023-06-14T03:47:35;97624.63;;;10.49;66.86
79198;BME280;68628;48.714;9.472;2023-06-14T03:50:05;97628.34;;;10.55;67.71
79198;BME280;68628;48.714;9.472;2023-06-14T03:52:31;97632.22;;;10.59;66.89
79198;BME280;68628;48.714;9.472;2023-06-14T03:54:57;97643.44;;;10.67;66.68
79198;BME280;68628;48.714;9.472;2023-06-14T03:57:24;97643.06;;;10.71;66.27
79198;BME280;68628;48.714;9.472;2023-06-14T03:59:50;97646.31;;;10.73;66.15
79198;BME280;68628;48.714;9.472;2023-06-14T04:02:16;97642.69;;;10.74;66.23
79198;BME280;68628;48.714;9.472;2023-06-14T04:04:43;97649.94;;;10.65;66.92
79198;BME280;68628;48.714;9.472;2023-06-14T04:07:14;97641.31;;;10.56;67.41
79198;BME280;68628;48.714;9.472;2023-06-14T04:09:46;97644.22;;;10.61;66.97
79198;BME280;68628;48.714;9.472;2023-06-14T04:12:12;97648.16;;;10.72;66.73
79198;BME280;68628;48.714;9.472;2023-06-14T04:14:39;97645.50;;;10.72;67.14
79198;BME280;68628;48.714;9.472;2023-06-14T04:17:06;97640.69;;;10.76;67.51
79198;BME280;68628;48.714;9.472;2023-06-14T04:19:32;97652.78;;;10.92;66.09
79198;BME280;68628;48.714;9.472;2023-06-14T04:21:59;97655.34;;;10.85;66.43
79198;BME280;68628;48.714;9.472;2023-06-14T04:24:30;97657.16;;;10.84;66.62
79198;BME280;68628;48.714;9.472;2023-06-14T04:27:01;97653.78;;;10.91;66.56
79198;BME280;68628;48.714;9.472;2023-06-14T04:29:26;97656.31;;;11.06;65.86
79198;BME280;68628;48.714;9.472;2023-06-14T04:31:55;97662.63;;;11.05;66.47
79198;BME280;68628;48.714;9.472;2023-06-14T04:34:27;97667.09;;;11.11;65.94
79198;BME280;68628;48.714;9.472;2023-06-14T04:36:58;97656.56;;;11.11;66.14
79198;BME280;68628;48.714;9.472;2023-06-14T04:39:25;97664.16;;;11.21;65.53
79198;BME280;68628;48.714;9.472;2023-06-14T04:41:51;97664.19;;;11.27;65.17
79198;BME280;68628;48.714;9.472;2023-06-14T04:44:23;97672.34;;;11.32;65.72
79198;BME280;68628;48.714;9.472;2023-06-14T04:46:58;97675.78;;;11.33;64.81
79198;BME280;68628;48.714;9.472;2023-06-14T04:49:24;97680.25;;;11.32;65.04
79198;BME280;68628;48.714;9.472;2023-06-14T04:51:52;97682.88;;;11.32;64.53
79198;BME280;68628;48.714;9.472;2023-06-14T04:54:23;97691.53;;;11.55;64.54
79198;BME280;68628;48.714;9.472;2023-06-14T04:56:51;97688.63;;;11.43;63.68
79198;BME280;68628;48.714;9.472;2023-06-14T04:59:18;97698.00;;;11.52;65.29
79198;BME280;68628;48.714;9.472;2023-06-14T05:01:44;97700.72;;;11.65;64.56
79198;BME280;68628;48.714;9.472;2023-06-14T05:04:16;97693.50;;;11.81;61.66
79198;BME280;68628;48.714;9.472;2023-06-14T05:06:44;97709.56;;;11.86;63.98
79198;BME280;68628;48.714;9.472;2023-06-14T05:09:14;97700.66;;;11.87;63.42
79198;BME280;68628;48.714;9.472;2023-06-14T05:11:41;97694.81;;;11.98;63.71
79198;BME280;68628;48.714;9.472;2023-06-14T05:14:13;97701.19;;;12.11;62.27
79198;BME280;68628;48.714;9.472;2023-06-14T05:16:40;97697.38;;;12.20;62.66
79198;BME280;68628;48.714;9.472;2023-06-14T05:19:06;97696.38;;;12.28;61.54
79198;BME280;68628;48.714;9.472;2023-06-14T05:21:32;97695.56;;;12.34;61.07
79198;BME280;68628;48.714;9.472;2023-06-14T05:24:01;97704.47;;;12.26;59.88
79198;BME280;68628;48.714;9.472;2023-06-14T05:26:27;97710.66;;;12.47;61.18
79198;BME280;68628;48.714;9.472;2023-06-14T05:28:56;97709.88;;;12.66;60.86
79198;BME280;68628;48.714;9.472;2023-06-14T05:31:23;97710.31;;;12.77;59.45
79198;BME280;68628;48.714;9.472;2023-06-14T05:33:52;97708.28;;;12.86;60.66
79198;BME280;68628;48.714;9.472;2023-06-14T05:36:18;97715.19;;;13.07;59.10
79198;BME280;68628;48.714;9.472;2023-06-14T05:38:45;97706.03;;;13.16;57.98
79198;BME280;68628;48.714;9.472;2023-06-14T05:41:11;97705.88;;;13.38;58.43
79198;BME280;68628;48.714;9.472;2023-06-14T05:43:37;97710.75;;;13.47;56.97
79198;BME280;68628;48.714;9.472;2023-06-14T05:46:03;97704.81;;;13.65;56.28
79198;BME280;68628;48.714;9.472;2023-06-14T05:48:30;97706.44;;;13.73;55.19
79198;BME280;68628;48.714;9.472;2023-06-14T05:50:56;97700.97;;;14.13;55.50
79198;BME280;68628;48.714;9.472;2023-06-14T05:53:21;97710.69;;;14.33;54.63
79198;BME280;68628;48.714;9.472;2023-06-14T05:55:47;97703.38;;;14.60;53.08
79198;BME280;68628;48.714;9.472;2023-06-14T05:58:13;97708.28;;;14.95;51.70
79198;BME280;68628;48.714;9.472;2023-06-14T06:00:39;97707.84;;;15.24;49.86
79198;BME280;68628;48.714;9.472;2023-06-14T06:03:05;97714.59;;;15.45;49.13
79198;BME280;68628;48.714;9.472;2023-06-14T06:05:33;97712.03;;;15.57;48.52
79198;BME280;68628;48.714;9.472;2023-06-14T06:07:59;97716.94;;;15.60;47.85
79198;BME280;68628;48.714;9.472;2023-06-14T06:10:26;97715.06;;;16.04;46.71
79198;BME280;68628;48.714;9.472;2023-06-14T06:12:51;97712.00;;;16.19;46.81
79198;BME280;68628;48.714;9.472;2023-06-14T06:15:19;97712.78;;;16.69;47.10
79198;BME280;68628;48.714;9.472;2023-06-14T06:17:46;97713.84;;;17.10;45.65
79198;BME280;68628;48.714;9.472;2023-06-14T06:20:12;97715.00;;;17.14;46.23
79198;BME280;68628;48.714;9.472;2023-06-14T06:22:41;97721.38;;;17.48;44.75
79198;BME280;68628;48.714;9.472;2023-06-14T06:25:07;97715.25;;;17.60;44.17
79198;BME280;68628;48.714;9.472;2023-06-14T06:27:34;97718.47;;;17.03;45.57
79198;BME280;68628;48.714;9.472;2023-06-14T06:30:03;97725.19;;;17.41;44.89
79198;BME280;68628;48.714;9.472;2023-06-14T06:32:34;97718.84;;;17.54;46.11
79198;BME280;68628;48.714;9.472;2023-06-14T06:34:59;97722.78;;;18.39;44.46
79198;BME280;68628;48.714;9.472;2023-06-14T06:37:28;97712.97;;;18.57;43.39
79198;BME280;68628;48.714;9.472;2023-06-14T06:39:54;97714.22;;;18.83;43.42
79198;BME280;68628;48.714;9.472;2023-06-14T06:42:21;97709.91;;;19.67;42.01
79198;BME280;68628;48.714;9.472;2023-06-14T06:44:46;97713.78;;;19.76;41.92
79198;BME280;68628;48.714;9.472;2023-06-14T06:47:12;97713.84;;;20.70;39.53
79198;BME280;68628;48.714;9.472;2023-06-14T06:49:53;97717.69;;;20.52;40.20
79198;BME280;68628;48.714;9.472;2023-06-14T06:52:18;97724.41;;;20.82;38.76
79198;BME280;68628;48.714;9.472;2023-06-14T06:54:45;97721.59;;;21.64;38.31
79198;BME280;68628;48.714;9.472;2023-06-14T06:57:14;97731.69;;;22.00;37.35
79198;BME280;68628;48.714;9.472;2023-06-14T06:59:40;97726.69;;;21.66;37.71
79198;BME280;68628;48.714;9.472;2023-06-14T07:02:13;97732.78;;;22.83;36.70
79198;BME280;68628;48.714;9.472;2023-06-14T07:04:39;97729.78;;;22.48;36.83
79198;BME280;68628;48.714;9.472;2023-06-14T07:07:05;97733.25;;;21.47;37.43
79198;BME280;68628;48.714;9.472;2023-06-14T07:09:31;97730.09;;;22.04;36.28
79198;BME280;68628;48.714;9.472;2023-06-14T07:12:00;97732.72;;;22.41;36.57
79198;BME280;68628;48.714;9.472;2023-06-14T07:14:26;97730.41;;;21.59;36.88
79198;BME280;68628;48.714;9.472;2023-06-14T07:16:56;97727.69;;;22.76;35.47
79198;BME280;68628;48.714;9.472;2023-06-14T07:19:22;97723.94;;;22.98;35.37
79198;BME280;68628;48.714;9.472;2023-06-14T07:21:48;97742.19;;;23.62;32.78
79198;BME280;68628;48.714;9.472;2023-06-14T07:24:20;97745.47;;;23.44;32.36
79198;BME280;68628;48.714;9.472;2023-06-14T07:26:51;97739.69;;;24.07;32.91
79198;BME280;68628;48.714;9.472;2023-06-14T07:29:27;97743.25;;;23.77;32.24
79198;BME280;68628;48.714;9.472;2023-06-14T07:31:53;97750.59;;;23.25;33.76
79198;BME280;68628;48.714;9.472;2023-06-14T07:34:19;97747.22;;;24.10;32.95
79198;BME280;68628;48.714;9.472;2023-06-14T07:36:44;97751.84;;;24.65;31.22
79198;BME280;68628;48.714;9.472;2023-06-14T07:39:11;97754.34;;;24.46;30.58
79198;BME280;68628;48.714;9.472;2023-06-14T07:41:37;97754.28;;;25.06;30.59
79198;BME280;68628;48.714;9.472;2023-06-14T07:44:03;97755.66;;;24.54;30.87
79198;BME280;68628;48.714;9.472;2023-06-14T07:46:28;97758.13;;;25.35;29.07
79198;BME280;68628;48.714;9.472;2023-06-14T07:48:55;97764.41;;;26.13;28.47
79198;BME280;68628;48.714;9.472;2023-06-14T07:51:21;97756.81;;;26.15;28.35
79198;BME280;68628;48.714;9.472;2023-06-14T07:53:48;97757.69;;;26.10;27.75
79198;BME280;68628;48.714;9.472;2023-06-14T07:56:14;97760.63;;;24.26;30.00
79198;BME280;68628;48.714;9.472;2023-06-14T07:58:40;97760.47;;;25.07;29.42
79198;BME280;68628;48.714;9.472;2023-06-14T08:01:06;97760.41;;;24.72;29.76
79198;BME280;68628;48.714;9.472;2023-06-14T08:03:33;97759.06;;;24.75;29.94
79198;BME280;68628;48.714;9.472;2023-06-14T08:06:00;97759.81;;;25.20;29.27
79198;BME280;68628;48.714;9.472;2023-06-14T08:08:26;97752.84;;;24.14;30.86
79198;BME280;68628;48.714;9.472;2023-06-14T08:10:52;97750.63;;;25.26;28.62
79198;BME280;68628;48.714;9.472;2023-06-14T08:13:18;97754.59;;;25.00;29.48
79198;BME280;68628;48.714;9.472;2023-06-14T08:15:43;97749.09;;;24.15;30.29
79198;BME280;68628;48.714;9.472;2023-06-14T08:18:10;97760.66;;;24.16;30.26
79198;BME280;68628;48.714;9.472;2023-06-14T08:20:36;97756.19;;;24.56;30.41
79198;BME280;68628;48.714;9.472;2023-06-14T08:23:03;97750.84;;;25.30;29.04
79198;BME280;68628;48.714;9.472;2023-06-14T08:25:32;97753.69;;;25.49;30.10
79198;BME280;68628;48.714;9.472;2023-06-14T08:27:58;97758.41;;;25.63;28.68
79198;BME280;68628;48.714;9.472;2023-06-14T08:30:25;97755.34;;;26.04;28.03
79198;BME280;68628;48.714;9.472;2023-06-14T08:32:50;97761.84;;;26.46;27.23
79198;BME280;68628;48.714;9.472;2023-06-14T08:35:17;97761.22;;;26.92;26.44
79198;BME280;68628;48.714;9.472;2023-06-14T08:37:43;97769.09;;;27.08;26.54
79198;BME280;68628;48.714;9.472;2023-06-14T08:40:21;97756.44;;;25.98;27.95
79198;BME280;68628;48.714;9.472;2023-06-14T08:42:51;97759.41;;;27.07;26.83
79198;BME280;68628;48.714;9.472;2023-06-14T08:45:20;97763.47;;;26.85;27.29
79198;BME280;68628;48.714;9.472;2023-06-14T08:47:47;97765.91;;;27.06;26.30
79198;BME280;68628;48.714;9.472;2023-06-14T08:50:27;97762.66;;;26.66;26.34
79198;BME280;68628;48.714;9.472;2023-06-14T08:52:59;97769.84;;;26.94;26.35
79198;BME280;68628;48.714;9.472;2023-06-14T08:55:28;97768.53;;;26.73;26.61
79198;BME280;68628;48.714;9.472;2023-06-14T08:57:57;97769.28;;;27.64;24.85
79198;BME280;68628;48.714;9.472;2023-06-14T09:00:25;97778.91;;;28.17;24.99
79198;BME280;68628;48.714;9.472;2023-06-14T09:02:53;97768.88;;;27.56;25.74
79198;BME280;68628;48.714;9.472;2023-06-14T09:05:24;97756.72;;;28.42;23.97
79198;BME280;68628;48.714;9.472;2023-06-14T09:07:51;97769.56;;;28.37;25.32
79198;BME280;68628;48.714;9.472;2023-06-14T09:10:18;97765.97;;;28.14;24.24
79198;BME280;68628;48.714;9.472;2023-06-14T09:12:43;97755.81;;;28.47;23.13
79198;BME280;68628;48.714;9.472;2023-06-14T09:15:09;97760.81;;;28.40;23.40
79198;BME280;68628;48.714;9.472;2023-06-14T09:17:37;97754.31;;;28.91;23.76
79198;BME280;68628;48.714;9.472;2023-06-14T09:20:06;97756.94;;;28.18;24.04
79198;BME280;68628;48.714;9.472;2023-06-14T09:22:36;97754.66;;;28.76;23.88
79198;BME280;68628;48.714;9.472;2023-06-14T09:25:05;97756.97;;;28.55;23.34
79198;BME280;68628;48.714;9.472;2023-06-14T09:27:32;97760.13;;;28.20;24.12
79198;BME280;68628;48.714;9.472;2023-06-14T09:29:58;97762.63;;;28.95;23.40
79198;BME280;68628;48.714;9.472;2023-06-14T09:32:25;97765.00;;;27.10;24.33
79198;BME280;68628;48.714;9.472;2023-06-14T09:34:51;97771.34;;;28.41;23.77
79198;BME280;68628;48.714;9.472;2023-06-14T09:37:28;97759.22;;;28.53;23.02
79198;BME280;68628;48.714;9.472;2023-06-14T09:39:55;97765.72;;;27.96;23.46
79198;BME280;68628;48.714;9.472;2023-06-14T09:42:21;97763.47;;;26.66;24.75
79198;BME280;68628;48.714;9.472;2023-06-14T09:44:49;97768.75;;;25.55;27.46
79198;BME280;68628;48.714;9.472;2023-06-14T09:47:16;97768.22;;;24.74;28.85
79198;BME280;68628;48.714;9.472;2023-06-14T09:49:42;97768.75;;;24.81;29.16
79198;BME280;68628;48.714;9.472;2023-06-14T09:52:16;97772.69;;;24.44;29.22
79198;BME280;68628;48.714;9.472;2023-06-14T09:54:45;97780.66;;;25.49;29.93
79198;BME280;68628;48.714;9.472;2023-06-14T09:57:14;97769.69;;;25.70;26.14
79198;BME280;68628;48.714;9.472;2023-06-14T09:59:46;97769.41;;;25.02;26.78
79198;BME280;68628;48.714;9.472;2023-06-14T10:02:26;97770.56;;;25.25;26.31
79198;BME280;68628;48.714;9.472;2023-06-14T10:05:03;97763.44;;;26.04;26.34
79198;BME280;68628;48.714;9.472;2023-06-14T10:07:53;97774.28;;;26.42;27.82
79198;BME280;68628;48.714;9.472;2023-06-14T10:10:24;97770.16;;;25.48;28.32
79198;BME280;68628;48.714;9.472;2023-06-14T10:12:50;97770.41;;;25.51;28.10
79198;BME280;68628;48.714;9.472;2023-06-14T10:15:30;97765.94;;;26.19;27.19
79198;BME280;68628;48.714;9.472;2023-06-14T10:18:30;97761.81;;;27.88;26.00
79198;BME280;68628;48.714;9.472;2023-06-14T10:21:26;97761.25;;;28.05;25.85
79198;BME280;68628;48.714;9.472;2023-06-14T10:24:05;97757.47;;;27.59;24.79
79198;BME280;68628;48.714;9.472;2023-06-14T10:26:33;97769.25;;;26.35;26.38
79198;BME280;68628;48.714;9.472;2023-06-14T10:29:01;97767.75;;;26.00;27.28
79198;BME280;68628;48.714;9.472;2023-06-14T10:31:41;97765.53;;;25.83;27.78
79198;BME280;68628;48.714;9.472;2023-06-14T10:34:11;97758.06;;;25.40;27.53
79198;BME280;68628;48.714;9.472;2023-06-14T10:36:45;97762.34;;;26.48;26.28
79198;BME280;68628;48.714;9.472;2023-06-14T10:39:25;97760.22;;;27.21;26.50
79198;BME280;68628;48.714;9.472;2023-06-14T10:41:55;97760.22;;;26.88;25.08
79198;BME280;68628;48.714;9.472;2023-06-14T10:46:55;97765.38;;;27.04;25.62
79198;BME280;68628;48.714;9.472;2023-06-14T10:49:42;97763.84;;;26.35;26.45
79198;BME280;68628;48.714;9.472;2023-06-14T10:52:14;97760.66;;;26.52;25.87
79198;BME280;68628;48.714;9.472;2023-06-14T10:55:02;97752.56;;;26.76;25.03
79198;BME280;68628;48.714;9.472;2023-06-14T10:57:32;97755.59;;;27.41;24.68
79198;BME280;68628;48.714;9.472;2023-06-14T11:00:00;97748.94;;;26.62;25.53
79198;BME280;68628;48.714;9.472;2023-06-14T11:05:14;97751.59;;;26.86;26.93
79198;BME280;68628;48.714;9.472;2023-06-14T11:08:11;97746.09;;;26.91;26.34
79198;BME280;68628;48.714;9.472;2023-06-14T11:10:43;97744.84;;;27.55;26.50
79198;BME280;68628;48.714;9.472;2023-06-14T11:13:11;97739.63;;;27.58;25.24
79198;BME280;68628;48.714;9.472;2023-06-14T11:15:38;97750.56;;;27.34;26.08
79198;BME280;68628;48.714;9.472;2023-06-14T11:18:08;97739.97;;;27.38;25.47
79198;BME280;68628;48.714;9.472;2023-06-14T11:20:40;97746.59;;;27.13;27.00
79198;BME280;68628;48.714;9.472;2023-06-14T11:23:05;97743.72;;;27.23;25.82
79198;BME280;68628;48.714;9.472;2023-06-14T11:25:32;97748.72;;;26.77;25.81
79198;BME280;68628;48.714;9.472;2023-06-14T11:27:58;97742.88;;;25.49;26.06
79198;BME280;68628;48.714;9.472;2023-06-14T11:30:26;97747.63;;;25.63;25.07
79198;BME280;68628;48.714;9.472;2023-06-14T11:32:54;97743.78;;;26.22;25.72
79198;BME280;68628;48.714;9.472;2023-06-14T11:35:24;97739.97;;;26.23;25.16
79198;BME280;68628;48.714;9.472;2023-06-14T11:37:54;97746.84;;;26.35;26.80
79198;BME280;68628;48.714;9.472;2023-06-14T11:40:26;97753.75;;;26.84;25.46
79198;BME280;68628;48.714;9.472;2023-06-14T11:43:00;97744.91;;;26.16;26.09
79198;BME280;68628;48.714;9.472;2023-06-14T11:45:29;97754.78;;;26.26;26.65
79198;BME280;68628;48.714;9.472;2023-06-14T11:47:57;97747.38;;;25.30;27.16
79198;BME280;68628;48.714;9.472;2023-06-14T11:50:24;97744.22;;;24.77;27.61
79198;BME280;68628;48.714;9.472;2023-06-14T11:52:57;97743.47;;;25.11;28.56
79198;BME280;68628;48.714;9.472;2023-06-14T11:55:32;97741.31;;;25.48;28.32
79198;BME280;68628;48.714;9.472;2023-06-14T11:58:01;97739.03;;;25.60;28.39
79198;BME280;68628;48.714;9.472;2023-06-14T12:00:28;97738.91;;;25.41;28.55
79198;BME280;68628;48.714;9.472;2023-06-14T12:02:55;97737.28;;;25.46;28.92
79198;BME280;68628;48.714;9.472;2023-06-14T12:05:23;97736.13;;;25.52;27.82
79198;BME280;68628;48.714;9.472;2023-06-14T12:07:50;97734.56;;;26.23;28.00
79198;BME280;68628;48.714;9.472;2023-06-14T12:10:18;97738.31;;;25.50;27.48
79198;BME280;68628;48.714;9.472;2023-06-14T12:12:44;97734.16;;;25.87;27.13
79198;BME280;68628;48.714;9.472;2023-06-14T12:15:10;97739.63;;;25.82;26.11
79198;BME280;68628;48.714;9.472;2023-06-14T12:17:38;97740.81;;;26.62;26.73
79198;BME280;68628;48.714;9.472;2023-06-14T12:20:12;97742.34;;;27.25;26.10
79198;BME280;68628;48.714;9.472;2023-06-14T12:22:54;97745.13;;;27.20;26.28
79198;BME280;68628;48.714;9.472;2023-06-14T12:27:55;97738.19;;;27.14;24.83
79198;BME280;68628;48.714;9.472;2023-06-14T12:30:21;97739.13;;;26.47;26.26
79198;BME280;68628;48.714;9.472;2023-06-14T12:32:47;97732.50;;;26.15;25.98
79198;BME280;68628;48.714;9.472;2023-06-14T12:35:14;97733.34;;;26.35;25.93
79198;BME280;68628;48.714;9.472;2023-06-14T12:37:40;97729.09;;;26.72;25.36
79198;BME280;68628;48.714;9.472;2023-06-14T12:40:07;97727.69;;;26.74;25.09
79198;BME280;68628;48.714;9.472;2023-06-14T12:42:33;97730.38;;;26.55;25.86
79198;BME280;68628;48.714;9.472;2023-06-14T12:44:59;97727.22;;;27.05;25.98
79198;BME280;68628;48.714;9.472;2023-06-14T12:47:25;97717.06;;;27.16;25.58
79198;BME280;68628;48.714;9.472;2023-06-14T12:49:51;97725.00;;;27.73;26.30
79198;BME280;68628;48.714;9.472;2023-06-14T12:52:16;97729.03;;;27.76;25.38
79198;BME280;68628;48.714;9.472;2023-06-14T12:54:42;97726.59;;;27.60;25.33
79198;BME280;68628;48.714;9.472;2023-06-14T12:57:08;97737.47;;;27.08;25.82
79198;BME280;68628;48.714;9.472;2023-06-14T12:59:35;97736.00;;;26.97;25.79
79198;BME280;68628;48.714;9.472;2023-06-14T13:02:11;97733.31;;;26.97;26.23
79198;BME280;68628;48.714;9.472;2023-06-14T13:04:38;97727.25;;;27.38;26.89
79198;BME280;68628;48.714;9.472;2023-06-14T13:07:04;97726.59;;;27.60;26.28
79198;BME280;68628;48.714;9.472;2023-06-14T13:09:30;97735.28;;;27.43;24.75
79198;BME280;68628;48.714;9.472;2023-06-14T13:11:56;97725.97;;;27.17;25.27
79198;BME280;68628;48.714;9.472;2023-06-14T13:14:22;97730.88;;;27.48;24.93